createdAt,value
2023-03-12T16:32:57.766Z,34.881592
2023-03-12T16:33:57.443Z,33.172607
2023-03-12T16:34:56.342Z,37.561035
2023-03-12T16:35:56.501Z,42.370605
2023-03-12T16:36:57.446Z,33.203125
2023-03-12T16:37:56.373Z,33.825684
2023-03-12T16:38:56.449Z,33.404541
2023-03-12T16:39:56.345Z,33.111572
2023-03-12T16:40:56.529Z,32.910156
2023-03-12T16:41:56.388Z,38.208008
2023-03-12T16:42:56.398Z,41.387939
2023-03-12T16:43:56.305Z,42.303467
2023-03-12T16:44:56.358Z,38.83667
2023-03-12T16:45:56.330Z,37.615967
2023-03-12T16:46:56.271Z,35.168457
2023-03-12T16:47:56.397Z,36.395264
2023-03-12T16:49:00.304Z,34.759521
2023-03-12T16:49:56.379Z,35.778809
2023-03-12T16:50:56.205Z,34.967041
2023-03-12T16:51:56.218Z,46.075439
2023-03-12T16:52:56.086Z,39.569092
2023-03-12T16:54:08.358Z,34.979248
2023-03-12T16:54:57.865Z,35.491943
2023-03-12T16:55:56.081Z,35.797119
2023-03-12T16:56:56.405Z,35.797119
2023-03-12T16:57:56.139Z,34.674072
2023-03-12T16:58:57.042Z,34.16748
2023-03-12T16:59:56.273Z,34.472656
2023-03-12T17:00:56.358Z,33.349609
2023-03-12T17:01:56.131Z,33.435059
2023-03-12T17:02:57.232Z,33.026123
2023-03-12T17:03:56.130Z,33.319092
2023-03-12T17:04:56.208Z,32.806396
2023-03-12T17:05:57.088Z,32.183838
2023-03-12T17:06:56.195Z,31.976318
2023-03-12T17:07:58.912Z,32.080078
2023-03-12T17:08:56.108Z,32.183838
2023-03-12T17:09:56.044Z,32.281494
2023-03-12T17:10:56.013Z,31.878662
2023-03-12T17:11:56.236Z,32.196045
2023-03-12T17:12:56.170Z,32.299805
2023-03-12T17:13:55.944Z,32.70874
2023-03-12T17:14:55.972Z,32.080078
2023-03-12T17:15:56.162Z,32.281494
2023-03-12T17:16:56.986Z,31.878662
2023-03-12T17:17:56.350Z,32.385254
2023-03-12T17:18:56.434Z,32.806396
2023-03-12T17:19:56.513Z,32.299805
2023-03-12T17:20:56.202Z,31.994629
2023-03-12T17:21:55.804Z,31.90918
2023-03-12T17:22:55.707Z,33.026123
2023-03-12T17:23:56.364Z,32.312012
